Time;durP1;ratioP1;P1;durP2;ratioP2;P2;SDS_P1;SDS_P2;PMS_P1;PMS_P2;Temp;Humidity;BMP_temperature;BMP_pressure;BME280_temperature;BME280_humidity;BME280_pressure;Samples;Min_cycle;Max_cycle;Signal;HPM_P1;HPM_P2
2022/07/24 00:01:32;;;;;;;4.40;2.38;;;19.50;91.90;;;;;;5004296;28;20030;-37
2022/07/24 00:03:58;;;;;;;6.00;2.50;;;19.50;92.00;;;;;;5010660;28;20109;-37
2022/07/24 00:06:24;;;;;;;3.45;2.55;;;19.50;91.90;;;;;;5012618;28;20124;-37
2022/07/24 00:08:50;;;;;;;3.78;2.58;;;19.40;92.00;;;;;;5012600;28;20037;-36
2022/07/24 00:11:15;;;;;;;4.00;2.38;;;19.40;92.20;;;;;;5010845;28;20045;-37
2022/07/24 00:13:41;;;;;;;3.83;2.88;;;19.40;92.30;;;;;;4992128;28;20046;-37
2022/07/24 00:16:07;;;;;;;2.90;1.98;;;19.30;92.90;;;;;;5011996;28;20053;-37
2022/07/24 00:18:33;;;;;;;3.90;2.70;;;19.30;92.50;;;;;;5012442;28;20064;-37
2022/07/24 00:20:58;;;;;;;5.57;3.00;;;19.30;92.50;;;;;;5012356;28;20038;-36
2022/07/24 00:23:25;;;;;;;3.78;2.63;;;19.20;92.70;;;;;;5008930;28;20037;-37
2022/07/24 00:25:51;;;;;;;5.00;2.70;;;19.20;93.30;;;;;;5012431;28;20034;-37
2022/07/24 00:28:17;;;;;;;3.20;2.50;;;19.20;92.90;;;;;;5007317;28;20470;-37
2022/07/24 00:30:43;;;;;;;4.05;2.75;;;19.20;93.20;;;;;;5012225;28;20109;-37
2022/07/24 00:33:09;;;;;;;5.18;2.72;;;19.10;93.20;;;;;;5011016;28;20041;-37
2022/07/24 00:35:34;;;;;;;4.68;2.90;;;19.10;93.10;;;;;;5012202;28;20083;-37
2022/07/24 00:38:00;;;;;;;4.10;2.75;;;19.00;93.20;;;;;;5003203;28;20042;-37
2022/07/24 00:40:26;;;;;;;5.60;2.78;;;19.00;93.40;;;;;;5012034;28;20037;-36
2022/07/24 00:42:52;;;;;;;6.15;2.50;;;19.00;93.60;;;;;;5006504;28;20034;-37
2022/07/24 00:45:18;;;;;;;6.50;3.60;;;19.00;93.60;;;;;;5012160;28;20541;-37
2022/07/24 00:47:44;;;;;;;4.30;2.67;;;18.90;93.70;;;;;;5011954;28;20045;-37
2022/07/24 00:50:10;;;;;;;3.55;2.78;;;18.90;93.80;;;;;;5012078;28;20363;-37
2022/07/24 00:52:36;;;;;;;4.00;3.05;;;18.80;93.90;;;;;;5011725;28;20092;-36
2022/07/24 00:55:03;;;;;;;4.25;3.08;;;18.90;94.10;;;;;;5011794;28;20487;-37
2022/07/24 00:57:29;;;;;;;5.40;3.13;;;18.80;94.10;;;;;;5005731;28;20038;-37
2022/07/24 00:59:55;;;;;;;6.03;3.00;;;18.70;94.30;;;;;;5004769;28;20095;-37
2022/07/24 01:02:21;;;;;;;5.07;3.13;;;18.70;94.50;;;;;;5011259;28;20042;-37
2022/07/24 01:04:48;;;;;;;3.70;2.83;;;18.60;94.60;;;;;;5011774;28;20049;-37
2022/07/24 01:07:14;;;;;;;5.25;2.72;;;18.60;94.60;;;;;;5011010;28;20196;-37
2022/07/24 01:09:40;;;;;;;3.85;2.83;;;18.60;94.90;;;;;;5011539;28;20141;-37
2022/07/24 01:12:06;;;;;;;4.18;2.65;;;18.60;94.90;;;;;;5010821;28;20139;-37
2022/07/24 01:14:32;;;;;;;3.60;2.70;;;18.60;95.00;;;;;;5011442;28;20073;-37
2022/07/24 01:16:58;;;;;;;4.05;2.65;;;18.60;95.10;;;;;;5006682;28;20049;-37
2022/07/24 01:19:24;;;;;;;5.93;2.92;;;18.60;95.10;;;;;;5006537;28;20039;-37
2022/07/24 01:21:52;;;;;;;4.10;2.65;;;18.50;95.10;;;;;;5019823;28;20076;-35
2022/07/24 01:24:19;;;;;;;4.35;2.90;;;18.50;95.20;;;;;;5011327;28;20348;-37
2022/07/24 01:26:45;;;;;;;4.95;2.72;;;18.40;95.40;;;;;;5010517;28;20034;-37
2022/07/24 01:29:11;;;;;;;4.00;2.72;;;18.40;95.40;;;;;;5011068;28;20042;-37
2022/07/24 01:31:37;;;;;;;4.55;2.92;;;18.40;95.40;;;;;;5010791;28;20386;-37
2022/07/24 01:34:04;;;;;;;5.63;3.35;;;18.30;95.90;;;;;;5006985;28;20042;-37
2022/07/24 01:36:29;;;;;;;4.13;2.58;;;18.30;95.60;;;;;;5006969;28;20486;-37
2022/07/24 01:38:55;;;;;;;6.53;3.05;;;18.30;95.70;;;;;;5010687;28;20038;-37
2022/07/24 01:41:21;;;;;;;4.15;2.97;;;18.30;95.80;;;;;;5010910;28;20129;-37
2022/07/24 01:43:47;;;;;;;4.22;3.00;;;18.30;95.90;;;;;;5011014;28;20042;-37
2022/07/24 01:46:12;;;;;;;3.70;2.60;;;18.30;95.80;;;;;;5010708;28;20198;-37
2022/07/24 01:48:42;;;;;;;4.55;3.35;;;18.30;95.80;;;;;;5010932;28;20042;-37
2022/07/24 01:51:09;;;;;;;6.43;3.40;;;18.20;95.80;;;;;;4999818;28;20049;-37
2022/07/24 01:53:34;;;;;;;5.85;3.67;;;18.20;95.80;;;;;;5010848;28;20506;-37
2022/07/24 01:56:00;;;;;;;5.68;3.03;;;18.10;96.00;;;;;;5003720;28;20038;-36
2022/07/24 01:58:26;;;;;;;5.25;3.00;;;18.00;96.00;;;;;;5010441;28;20058;-37
2022/07/24 02:00:52;;;;;;;3.78;2.60;;;18.00;96.30;;;;;;5010507;28;20034;-37
2022/07/24 02:03:18;;;;;;;4.25;3.40;;;17.90;96.30;;;;;;5010976;28;20140;-37
2022/07/24 02:05:44;;;;;;;4.57;2.80;;;17.90;96.50;;;;;;5004375;28;20504;-37
2022/07/24 02:08:09;;;;;;;5.38;3.22;;;17.90;96.50;;;;;;5010355;28;20038;-37
2022/07/24 02:10:35;;;;;;;5.20;3.55;;;17.90;96.50;;;;;;5010589;28;20125;-37
2022/07/24 02:13:01;;;;;;;3.70;2.72;;;17.90;96.60;;;;;;5009785;28;20379;-37
2022/07/24 02:15:27;;;;;;;3.47;2.30;;;17.90;96.60;;;;;;5010298;28;20147;-37
2022/07/24 02:17:55;;;;;;;5.28;3.08;;;17.80;96.60;;;;;;5010299;28;20050;-41
2022/07/24 02:20:21;;;;;;;4.82;2.80;;;17.80;96.80;;;;;;5010455;28;20045;-36
2022/07/24 02:22:47;;;;;;;3.63;2.78;;;17.70;96.90;;;;;;5008687;28;20042;-37
2022/07/24 02:25:13;;;;;;;3.60;2.40;;;17.80;97.00;;;;;;5010299;28;20115;-37
2022/07/24 02:27:39;;;;;;;4.25;2.50;;;17.80;97.10;;;;;;5010119;28;20470;-37
2022/07/24 02:30:08;;;;;;;4.63;2.80;;;17.80;97.40;;;;;;5008891;28;20038;-36
2022/07/24 02:32:34;;;;;;;5.32;3.20;;;17.90;97.30;;;;;;5010287;28;20084;-37
2022/07/24 02:35:00;;;;;;;5.53;2.92;;;17.90;97.30;;;;;;5010245;28;20471;-37
2022/07/24 02:37:26;;;;;;;4.45;3.10;;;17.90;97.20;;;;;;5009758;28;20052;-37
2022/07/24 02:39:51;;;;;;;4.75;2.80;;;17.90;97.40;;;;;;5001736;28;20118;-37
2022/07/24 02:42:17;;;;;;;4.20;3.00;;;17.90;97.60;;;;;;5009924;28;20052;-37
2022/07/24 02:44:43;;;;;;;3.72;2.83;;;17.90;97.50;;;;;;5010287;28;20030;-37
2022/07/24 02:47:08;;;;;;;3.03;2.38;;;17.90;97.50;;;;;;5009986;28;20049;-37
2022/07/24 02:49:35;;;;;;;4.65;3.08;;;17.90;97.60;;;;;;5010262;28;20084;-37
2022/07/24 02:52:02;;;;;;;4.75;2.97;;;17.90;97.60;;;;;;5009724;28;20112;-36
2022/07/24 02:54:28;;;;;;;5.50;3.15;;;17.90;97.60;;;;;;5009128;28;20073;-37
2022/07/24 02:56:53;;;;;;;4.53;3.15;;;17.90;97.60;;;;;;5011401;28;20038;-37
2022/07/24 02:59:19;;;;;;;6.35;3.60;;;17.90;97.40;;;;;;5006147;28;20046;-36
2022/07/24 03:01:45;;;;;;;4.80;3.42;;;17.90;97.50;;;;;;5014049;28;20117;-37
2022/07/24 03:04:10;;;;;;;6.20;3.60;;;17.80;97.50;;;;;;5009831;28;20037;-37
2022/07/24 03:06:36;;;;;;;5.75;3.42;;;17.80;97.60;;;;;;5013886;28;20637;-37
2022/07/24 03:09:03;;;;;;;5.00;3.50;;;17.70;97.70;;;;;;5013915;28;20352;-37
2022/07/24 03:11:28;;;;;;;6.60;3.53;;;17.70;97.90;;;;;;5008201;28;20049;-37
2022/07/24 03:13:54;;;;;;;6.07;3.65;;;17.70;98.00;;;;;;5003761;28;20031;-37
2022/07/24 03:16:20;;;;;;;4.35;3.13;;;17.70;98.10;;;;;;5013546;28;20045;-37
2022/07/24 03:18:45;;;;;;;6.15;4.03;;;17.70;98.20;;;;;;5013798;28;20474;-37
2022/07/24 03:21:13;;;;;;;4.10;2.97;;;17.60;98.10;;;;;;5013291;28;20140;-37
2022/07/24 03:23:39;;;;;;;6.50;3.47;;;17.70;98.30;;;;;;4995701;28;20041;-37
2022/07/24 03:26:04;;;;;;;5.78;3.83;;;17.70;98.30;;;;;;5013335;28;20129;-37
2022/07/24 03:28:30;;;;;;;5.63;3.85;;;17.70;98.30;;;;;;5010462;28;20113;-37
2022/07/24 03:30:56;;;;;;;6.32;4.18;;;17.60;98.30;;;;;;5013245;28;20056;-37
2022/07/24 03:33:21;;;;;;;4.78;3.40;;;17.60;98.40;;;;;;5013361;28;20121;-36
2022/07/24 03:35:47;;;;;;;5.25;3.60;;;17.60;98.50;;;;;;5013651;28;20561;-36
2022/07/24 03:38:13;;;;;;;5.50;3.55;;;17.60;98.50;;;;;;5012645;28;20042;-37
2022/07/24 03:40:39;;;;;;;5.72;4.18;;;17.60;98.60;;;;;;5013568;28;20045;-37
2022/07/24 03:43:04;;;;;;;5.05;3.80;;;17.60;98.70;;;;;;5012737;28;20034;-40
2022/07/24 03:45:30;;;;;;;4.45;3.33;;;17.60;98.80;;;;;;5010964;28;20042;-37
2022/07/24 03:47:56;;;;;;;7.68;3.97;;;17.60;99.00;;;;;;5012592;28;20041;-37
2022/07/24 03:50:21;;;;;;;5.50;4.10;;;17.50;98.90;;;;;;5011348;28;20052;-37
2022/07/24 03:52:47;;;;;;;8.07;4.78;;;17.60;99.00;;;;;;5007461;28;20033;-37
2022/07/24 03:55:13;;;;;;;5.75;3.88;;;17.50;99.10;;;;;;5012769;28;20045;-37
2022/07/24 03:57:38;;;;;;;8.20;4.22;;;17.50;99.20;;;;;;5009805;28;20384;-36
2022/07/24 04:00:06;;;;;;;5.13;3.83;;;17.50;99.20;;;;;;5011661;28;20046;-37
2022/07/24 04:02:32;;;;;;;5.43;4.15;;;17.50;99.30;;;;;;5006197;28;20113;-37
2022/07/24 04:04:58;;;;;;;6.68;3.85;;;17.50;99.50;;;;;;5004386;28;20125;-37
2022/07/24 04:07:23;;;;;;;5.85;3.97;;;17.50;99.60;;;;;;5010453;28;20038;-37
2022/07/24 04:09:49;;;;;;;6.13;4.25;;;17.50;99.50;;;;;;5012639;28;20464;-37
2022/07/24 04:12:14;;;;;;;5.22;3.92;;;17.50;99.80;;;;;;5012295;28;20570;-37
2022/07/24 04:14:40;;;;;;;6.90;4.13;;;17.50;99.70;;;;;;5012457;28;20070;-37
2022/07/24 04:17:06;;;;;;;5.95;3.78;;;17.50;99.70;;;;;;5007653;28;20073;-36
2022/07/24 04:19:32;;;;;;;6.57;3.42;;;17.50;99.80;;;;;;5012522;28;20113;-37
2022/07/24 04:21:58;;;;;;;4.88;3.50;;;17.50;99.90;;;;;;5012292;28;20045;-37
2022/07/24 04:24:24;;;;;;;6.70;4.22;;;17.50;99.90;;;;;;5012361;28;20113;-37
2022/07/24 04:26:49;;;;;;;5.68;3.92;;;17.40;99.90;;;;;;5012241;28;20120;-37
2022/07/24 04:29:15;;;;;;;6.25;3.50;;;17.40;99.90;;;;;;5012225;28;20165;-37
2022/07/24 04:31:41;;;;;;;6.38;4.75;;;17.30;99.90;;;;;;5012323;28;20061;-37
2022/07/24 04:34:06;;;;;;;7.72;5.18;;;17.30;99.90;;;;;;5011815;28;20049;-34
2022/07/24 04:36:32;;;;;;;8.75;4.80;;;17.20;99.90;;;;;;4989497;28;20053;-36
2022/07/24 04:38:58;;;;;;;10.20;5.30;;;17.20;99.90;;;;;;5012286;28;20446;-37
2022/07/24 04:41:24;;;;;;;7.05;5.15;;;17.10;99.90;;;;;;5012215;28;20069;-37
2022/07/24 04:43:50;;;;;;;8.35;5.47;;;17.10;99.90;;;;;;5012205;28;20042;-37
2022/07/24 04:46:17;;;;;;;6.90;4.80;;;17.00;99.90;;;;;;5012090;28;20061;-37
2022/07/24 04:48:42;;;;;;;9.23;4.50;;;17.00;99.90;;;;;;5007976;28;20066;-36
2022/07/24 04:51:08;;;;;;;5.93;4.38;;;17.00;99.90;;;;;;5011605;28;20498;-37
2022/07/24 04:53:34;;;;;;;6.78;3.83;;;17.00;99.90;;;;;;5010676;28;20042;-37
2022/07/24 04:55:59;;;;;;;7.43;4.70;;;17.00;99.90;;;;;;5011403;28;20069;-37
2022/07/24 04:58:26;;;;;;;6.90;4.28;;;17.10;99.90;;;;;;5011669;28;20053;-37
2022/07/24 05:00:52;;;;;;;6.97;5.20;;;17.20;99.90;;;;;;5011674;28;20033;-36
2022/07/24 05:03:18;;;;;;;5.82;4.40;;;17.20;99.90;;;;;;5003981;28;20517;-36
2022/07/24 05:05:43;;;;;;;6.38;5.05;;;17.20;99.90;;;;;;5009990;28;20038;-37
2022/07/24 05:08:09;;;;;;;8.40;5.18;;;17.30;99.90;;;;;;5008100;28;20045;-37
2022/07/24 05:10:35;;;;;;;6.78;5.10;;;17.40;99.90;;;;;;5007741;28;20092;-37
2022/07/24 05:13:00;;;;;;;6.88;5.20;;;17.40;99.90;;;;;;5011202;28;20121;-37
2022/07/24 05:15:26;;;;;;;7.40;5.20;;;17.50;99.90;;;;;;5026032;28;20517;-35
2022/07/24 05:17:52;;;;;;;8.40;5.70;;;17.60;99.90;;;;;;5000062;28;20082;-36
2022/07/24 05:20:17;;;;;;;7.20;5.30;;;17.70;99.90;;;;;;5010870;28;20376;-37
2022/07/24 05:22:43;;;;;;;7.70;4.90;;;17.70;99.90;;;;;;5011144;28;20030;-37
2022/07/24 05:25:09;;;;;;;7.15;4.93;;;17.80;99.90;;;;;;5010052;28;20049;-37
2022/07/24 05:27:34;;;;;;;7.57;5.40;;;17.80;99.90;;;;;;5010972;28;20543;-37
2022/07/24 05:30:00;;;;;;;10.57;6.30;;;17.80;99.90;;;;;;5011272;28;20030;-37
2022/07/24 05:32:26;;;;;;;7.78;5.50;;;17.90;99.90;;;;;;5011305;28;20050;-34
2022/07/24 05:34:52;;;;;;;7.65;5.45;;;18.00;99.90;;;;;;5009816;28;20430;-37
2022/07/24 05:37:17;;;;;;;7.25;4.78;;;18.00;99.90;;;;;;5010721;28;20104;-37
2022/07/24 05:39:43;;;;;;;8.07;5.65;;;18.00;99.90;;;;;;5010909;28;20041;-37
2022/07/24 05:42:09;;;;;;;7.03;5.55;;;18.10;99.90;;;;;;5004618;28;20048;-37
2022/07/24 05:44:35;;;;;;;9.73;5.60;;;18.10;99.90;;;;;;5011074;28;20082;-37
2022/07/24 05:47:00;;;;;;;7.68;5.55;;;18.10;99.90;;;;;;5010864;28;20041;-37
2022/07/24 05:49:26;;;;;;;9.52;6.22;;;18.10;99.90;;;;;;5010774;28;20045;-37
2022/07/24 05:51:52;;;;;;;7.63;5.60;;;18.10;99.90;;;;;;5004882;28;20577;-37
2022/07/24 05:54:17;;;;;;;13.23;6.03;;;18.20;99.90;;;;;;5010812;28;20087;-36
2022/07/24 05:56:43;;;;;;;8.98;6.43;;;18.20;99.90;;;;;;5010473;28;20137;-37
2022/07/24 05:59:08;;;;;;;9.32;6.47;;;18.20;99.90;;;;;;5006261;28;20060;-37
2022/07/24 06:01:34;;;;;;;11.30;6.63;;;18.30;99.90;;;;;;5010519;28;20034;-37
2022/07/24 06:04:00;;;;;;;12.88;6.47;;;18.30;99.90;;;;;;5025538;28;20057;-37
2022/07/24 06:06:25;;;;;;;11.57;6.30;;;18.40;99.90;;;;;;5010328;28;20037;-37
2022/07/24 06:08:51;;;;;;;9.60;6.82;;;18.40;99.90;;;;;;5010639;28;20050;-37
2022/07/24 06:11:17;;;;;;;8.65;6.60;;;18.40;99.90;;;;;;5010256;28;20846;-37
2022/07/24 06:13:43;;;;;;;9.88;6.43;;;18.50;99.90;;;;;;5006868;28;20049;-37
2022/07/24 06:16:09;;;;;;;9.48;7.13;;;18.60;99.90;;;;;;4997759;28;20503;-37
2022/07/24 06:18:35;;;;;;;11.20;7.25;;;18.70;99.90;;;;;;5010310;28;20108;-37
2022/07/24 06:21:00;;;;;;;10.70;6.90;;;18.70;99.90;;;;;;5003200;28;20396;-37
2022/07/24 06:23:26;;;;;;;14.15;6.82;;;18.80;99.90;;;;;;5010308;28;20117;-37
2022/07/24 06:25:52;;;;;;;9.80;7.65;;;18.90;99.90;;;;;;5007886;28;20034;-37
2022/07/24 06:28:17;;;;;;;10.43;8.50;;;19.00;99.90;;;;;;5005471;28;20041;-35
2022/07/24 06:30:43;;;;;;;9.43;7.10;;;19.10;99.90;;;;;;5004993;28;20038;-37
2022/07/24 06:33:09;;;;;;;12.25;7.50;;;19.10;99.90;;;;;;5009629;28;20034;-37
2022/07/24 06:35:34;;;;;;;10.70;7.63;;;19.20;99.90;;;;;;5008667;28;20081;-39
2022/07/24 06:38:00;;;;;;;12.18;7.15;;;19.30;99.90;;;;;;5009512;28;20041;-36
2022/07/24 06:40:27;;;;;;;13.82;9.02;;;19.30;99.90;;;;;;5003179;28;20088;-37
2022/07/24 06:42:52;;;;;;;15.95;9.25;;;19.40;99.90;;;;;;5008362;28;20111;-37
2022/07/24 06:45:18;;;;;;;15.75;8.75;;;19.50;99.90;;;;;;5009664;28;20041;-37
2022/07/24 06:47:44;;;;;;;12.73;9.20;;;19.60;99.90;;;;;;5008770;28;20042;-37
2022/07/24 06:50:12;;;;;;;13.98;9.20;;;19.60;99.90;;;;;;5008424;28;20153;-37
2022/07/24 06:52:37;;;;;;;12.77;9.75;;;19.70;99.90;;;;;;5004609;28;20084;-37
2022/07/24 06:55:04;;;;;;;12.80;8.60;;;19.90;99.90;;;;;;5002402;28;20081;-37
2022/07/24 06:57:30;;;;;;;13.45;9.15;;;20.00;99.90;;;;;;5004092;28;20523;-37
2022/07/24 06:59:55;;;;;;;13.68;9.13;;;20.10;99.90;;;;;;5010260;28;20118;-37
2022/07/24 07:02:22;;;;;;;18.70;8.48;;;20.10;99.90;;;;;;5007605;28;20037;-37
2022/07/24 07:04:48;;;;;;;11.65;7.97;;;20.30;99.90;;;;;;5006865;28;20077;-37
2022/07/24 07:07:15;;;;;;;12.85;8.23;;;20.40;99.90;;;;;;5009038;28;20050;-37
2022/07/24 07:09:41;;;;;;;12.68;7.63;;;20.40;99.40;;;;;;5009227;28;20046;-36
2022/07/24 07:12:07;;;;;;;11.57;7.55;;;20.50;98.80;;;;;;5009144;28;20516;-37
2022/07/24 07:14:33;;;;;;;10.27;7.57;;;20.60;98.00;;;;;;4999908;28;20046;-38
2022/07/24 07:16:59;;;;;;;8.05;6.35;;;20.70;97.80;;;;;;5008953;28;20061;-37
2022/07/24 07:19:25;;;;;;;7.00;4.30;;;20.80;97.70;;;;;;5001764;28;20406;-37
2022/07/24 07:21:51;;;;;;;10.25;4.03;;;21.00;96.00;;;;;;4994716;28;20495;-37
2022/07/24 07:24:16;;;;;;;7.28;3.92;;;21.10;95.10;;;;;;5009416;28;20049;-37
2022/07/24 07:26:42;;;;;;;6.03;3.75;;;21.20;94.30;;;;;;5009300;28;20099;-37
2022/07/24 07:29:08;;;;;;;5.05;3.35;;;21.30;94.00;;;;;;5009599;28;20415;-36
2022/07/24 07:31:34;;;;;;;5.38;3.20;;;21.40;92.80;;;;;;5009605;28;20042;-37
2022/07/24 07:33:59;;;;;;;11.02;3.30;;;21.50;92.30;;;;;;5009669;28;20555;-37
2022/07/24 07:36:26;;;;;;;5.47;3.22;;;21.60;92.00;;;;;;5006068;28;20038;-37
2022/07/24 07:38:52;;;;;;;7.15;3.03;;;21.70;91.30;;;;;;5000546;28;20082;-37
2022/07/24 07:41:19;;;;;;;4.93;2.80;;;21.80;91.20;;;;;;5009500;28;20042;-37
2022/07/24 07:43:47;;;;;;;4.93;3.20;;;21.90;91.00;;;;;;5010134;28;20038;-38
2022/07/24 07:46:13;;;;;;;4.25;2.55;;;22.10;90.30;;;;;;5013076;28;20137;-37
2022/07/24 07:48:40;;;;;;;6.18;2.53;;;22.30;90.30;;;;;;5013147;28;20038;-37
2022/07/24 07:51:05;;;;;;;3.75;2.40;;;22.40;89.90;;;;;;5005656;28;20459;-37
2022/07/24 07:53:31;;;;;;;5.25;2.15;;;22.50;88.10;;;;;;5007682;28;20152;-37
2022/07/24 07:55:57;;;;;;;3.95;2.35;;;22.60;87.90;;;;;;5003907;28;20367;-37
2022/07/24 07:58:23;;;;;;;4.32;2.58;;;22.60;87.30;;;;;;5012958;28;20437;-37
2022/07/24 08:00:49;;;;;;;3.42;2.33;;;22.50;87.20;;;;;;5007018;28;20034;-36
2022/07/24 08:03:15;;;;;;;3.15;2.00;;;22.40;88.10;;;;;;5008503;28;20467;-37
2022/07/24 08:05:41;;;;;;;7.63;3.13;;;22.40;89.10;;;;;;5001774;28;20156;-37
2022/07/24 08:08:06;;;;;;;4.97;2.70;;;22.40;88.90;;;;;;5012791;28;20450;-37
2022/07/24 08:10:32;;;;;;;11.07;2.75;;;22.50;88.80;;;;;;5012596;28;20045;-37
2022/07/24 08:12:58;;;;;;;4.20;2.85;;;22.60;89.50;;;;;;5012481;28;20107;-37
2022/07/24 08:15:24;;;;;;;5.03;2.30;;;22.90;88.80;;;;;;5012404;28;20061;-37
2022/07/24 08:17:57;;;;;;;7.65;2.83;;;23.00;87.40;;;;;;5012155;28;20099;-37
2022/07/24 08:20:24;;;;;;;5.78;2.90;;;22.90;87.20;;;;;;5009898;28;20042;-38
2022/07/24 08:22:50;;;;;;;4.65;2.80;;;22.90;87.80;;;;;;5011064;28;20030;-37
2022/07/24 08:25:16;;;;;;;3.58;2.55;;;23.10;87.30;;;;;;5000180;28;20042;-37
2022/07/24 08:27:42;;;;;;;5.15;2.90;;;23.20;86.00;;;;;;5007379;28;20042;-37
2022/07/24 08:30:08;;;;;;;4.32;2.65;;;23.20;85.80;;;;;;5012367;28;20038;-37
2022/07/24 08:32:34;;;;;;;4.93;2.60;;;23.10;85.60;;;;;;5012181;28;20050;-37
2022/07/24 08:35:00;;;;;;;4.15;2.13;;;23.00;85.50;;;;;;5010090;28;20048;-37
2022/07/24 08:37:26;;;;;;;3.20;2.00;;;22.90;85.80;;;;;;5011797;28;20375;-37
2022/07/24 08:39:54;;;;;;;6.85;2.45;;;22.80;87.40;;;;;;5012176;28;20398;-37
2022/07/24 08:42:20;;;;;;;7.43;1.70;;;22.80;86.80;;;;;;5011933;28;20049;-37
2022/07/24 08:44:46;;;;;;;2.95;1.75;;;23.00;86.60;;;;;;5012432;28;20499;-37
2022/07/24 08:47:14;;;;;;;3.75;1.88;;;23.10;84.70;;;;;;5010485;28;20041;-37
2022/07/24 08:49:41;;;;;;;3.42;1.42;;;23.40;83.80;;;;;;5007257;28;20460;-37
2022/07/24 08:52:09;;;;;;;3.05;1.77;;;23.60;84.00;;;;;;5011670;28;20482;-37
2022/07/24 08:54:36;;;;;;;2.40;1.50;;;23.90;83.20;;;;;;5008237;28;20577;-37
2022/07/24 08:57:03;;;;;;;2.97;1.60;;;24.00;80.10;;;;;;5002373;28;20042;-37
2022/07/24 08:59:29;;;;;;;2.63;1.58;;;24.10;79.00;;;;;;5011626;28;20574;-37
2022/07/24 09:01:55;;;;;;;4.63;1.67;;;24.20;76.10;;;;;;5011656;28;20041;-37
2022/07/24 09:04:35;;;;;;;3.55;1.55;;;24.30;74.60;;;;;;5011838;28;20057;-37
2022/07/24 09:07:03;;;;;;;2.70;1.75;;;24.40;75.30;;;;;;5011200;28;20076;-37
2022/07/24 09:09:28;;;;;;;3.17;1.70;;;24.60;74.90;;;;;;5011749;28;20499;-38
2022/07/24 09:12:08;;;;;;;3.58;1.40;;;24.70;71.00;;;;;;5011335;28;20072;-37
2022/07/24 09:14:38;;;;;;;2.90;1.77;;;24.80;71.10;;;;;;4998551;28;20045;-38
2022/07/24 09:17:13;;;;;;;2.28;1.50;;;24.80;69.90;;;;;;5010945;28;20513;-37
2022/07/24 09:19:59;;;;;;;3.20;1.60;;;24.80;67.30;;;;;;5000961;28;20061;-37
2022/07/24 09:22:34;;;;;;;2.88;2.05;;;24.70;72.00;;;;;;5011006;28;20088;-37
2022/07/24 09:25:14;;;;;;;2.35;1.50;;;24.70;73.50;;;;;;5003057;28;20535;-37
2022/07/24 09:27:51;;;;;;;3.10;1.67;;;24.70;71.40;;;;;;5011058;28;20053;-37
2022/07/24 09:30:27;;;;;;;2.63;1.75;;;24.80;74.10;;;;;;5009969;28;20513;-37
2022/07/24 09:33:12;;;;;;;2.78;1.67;;;24.80;68.60;;;;;;5008922;28;20453;-37
2022/07/24 09:35:43;;;;;;;3.50;1.65;;;24.80;70.30;;;;;;5011385;28;20518;-37
2022/07/24 09:38:12;;;;;;;2.20;1.50;;;24.80;70.10;;;;;;5009526;28;20375;-42
2022/07/24 09:40:41;;;;;;;4.05;1.40;;;25.00;68.20;;;;;;5000695;28;20410;-38
2022/07/24 09:43:20;;;;;;;2.40;1.40;;;25.00;69.00;;;;;;5010392;28;20114;-38
2022/07/24 09:45:57;;;;;;;2.72;1.30;;;25.10;63.70;;;;;;5010646;28;20042;-37
2022/07/24 09:48:31;;;;;;;4.45;1.70;;;25.10;67.70;;;;;;5004007;28;20282;-38
2022/07/24 09:51:04;;;;;;;3.30;1.33;;;25.10;67.50;;;;;;5010511;28;20041;-37
2022/07/24 09:53:34;;;;;;;4.07;1.40;;;25.20;64.60;;;;;;5010624;28;20045;-37
2022/07/24 09:56:01;;;;;;;3.33;1.30;;;25.30;62.50;;;;;;5002149;28;20497;-37
2022/07/24 09:58:28;;;;;;;3.05;1.65;;;25.30;63.40;;;;;;5010486;28;20045;-37
2022/07/24 10:00:55;;;;;;;2.40;1.45;;;25.30;63.70;;;;;;5006274;28;20448;-37
2022/07/24 10:03:25;;;;;;;2.53;1.40;;;25.30;63.80;;;;;;5008154;28;20406;-37
2022/07/24 10:05:55;;;;;;;4.20;1.50;;;25.40;63.20;;;;;;5010300;28;20466;-37
2022/07/24 10:08:21;;;;;;;4.13;1.58;;;25.50;62.90;;;;;;5010494;28;20053;-37
2022/07/24 10:10:49;;;;;;;1.98;1.20;;;25.60;62.10;;;;;;5010526;28;20045;-37
2022/07/24 10:13:15;;;;;;;2.35;1.40;;;25.70;62.20;;;;;;4992460;28;20414;-37
2022/07/24 10:16:09;;;;;;;3.38;1.45;;;25.80;62.40;;;;;;5006981;28;20125;-37
2022/07/24 10:18:53;;;;;;;2.72;1.67;;;25.90;62.70;;;;;;5007282;28;20049;-37
2022/07/24 10:21:33;;;;;;;5.05;1.48;;;26.10;63.40;;;;;;5000086;28;20120;-37
2022/07/24 10:24:35;;;;;;;1.92;1.20;;;26.30;58.40;;;;;;5010108;28;20579;-37
2022/07/24 10:27:05;;;;;;;2.22;1.60;;;26.40;53.50;;;;;;5004613;28;20041;-37
2022/07/24 10:29:34;;;;;;;2.00;1.40;;;26.10;56.50;;;;;;5007326;28;20033;-37
2022/07/24 10:32:00;;;;;;;2.45;1.40;;;26.10;58.50;;;;;;5010253;28;20129;-37
2022/07/24 10:34:36;;;;;;;3.03;1.30;;;26.10;58.50;;;;;;5010138;28;20456;-37
2022/07/24 10:37:13;;;;;;;5.40;1.45;;;26.20;58.40;;;;;;5010035;28;20444;-37
2022/07/24 10:39:54;;;;;;;2.03;1.38;;;26.20;55.40;;;;;;5008958;28;20045;-37
2022/07/24 10:42:19;;;;;;;2.25;1.33;;;26.10;58.90;;;;;;5014329;28;20096;-37
2022/07/24 10:45:16;;;;;;;2.60;1.30;;;26.10;59.30;;;;;;5006563;28;20042;-36
2022/07/24 10:47:42;;;;;;;2.25;1.42;;;26.20;57.40;;;;;;5003260;28;20444;-37
2022/07/24 10:50:07;;;;;;;3.85;1.80;;;26.30;57.00;;;;;;5009963;28;20124;-37
2022/07/24 10:52:34;;;;;;;3.63;1.73;;;26.30;54.10;;;;;;5005126;28;20415;-37
2022/07/24 10:55:28;;;;;;;2.70;1.55;;;26.30;55.40;;;;;;5009835;28;20125;-37
2022/07/24 10:58:10;;;;;;;1.98;1.50;;;26.40;57.10;;;;;;5018233;28;20035;-37
2022/07/24 11:00:37;;;;;;;;;;;26.40;54.80;;;;;;5008300;28;20038;-37
2022/07/24 11:03:05;;;;;;;2.13;1.35;;;26.40;55.00;;;;;;5009727;28;20000;-37
2022/07/24 11:05:38;;;;;;;1.80;1.30;;;26.60;56.50;;;;;;5009883;28;20057;-37
2022/07/24 11:08:17;;;;;;;3.92;1.58;;;26.70;55.40;;;;;;4999403;28;20147;-37
2022/07/24 11:10:50;;;;;;;3.45;1.45;;;26.80;51.20;;;;;;5006766;28;20491;-37
2022/07/24 11:13:34;;;;;;;3.35;1.58;;;26.80;52.80;;;;;;5001833;28;20049;-37
2022/07/24 11:16:15;;;;;;;2.53;1.55;;;26.90;52.80;;;;;;5008792;28;20073;-37
2022/07/24 11:19:02;;;;;;;3.25;1.50;;;27.00;51.30;;;;;;5012387;28;20518;-37
2022/07/24 11:21:35;;;;;;;3.83;1.83;;;27.10;52.90;;;;;;5004812;28;20050;-37
2022/07/24 11:24:19;;;;;;;3.38;1.48;;;27.20;51.50;;;;;;5009385;28;20038;-37
2022/07/24 11:26:52;;;;;;;2.45;1.42;;;27.30;52.70;;;;;;5013301;28;20034;-37
2022/07/24 11:29:26;;;;;;;4.55;1.63;;;27.30;50.60;;;;;;5013491;28;20129;-40
2022/07/24 11:32:00;;;;;;;3.95;1.90;;;27.30;51.00;;;;;;5006720;28;20470;-37
2022/07/24 11:34:27;;;;;;;4.82;1.90;;;27.30;49.50;;;;;;5010016;28;20053;-37
2022/07/24 11:36:54;;;;;;;2.75;1.48;;;27.30;49.30;;;;;;5011666;28;20056;-37
2022/07/24 11:39:33;;;;;;;2.50;1.48;;;27.20;49.80;;;;;;5002686;28;20200;-38
2022/07/24 11:42:02;;;;;;;2.17;1.58;;;27.30;47.90;;;;;;5007344;28;20050;-37
2022/07/24 11:44:33;;;;;;;2.65;1.40;;;27.40;47.50;;;;;;5006920;28;20042;-37
2022/07/24 11:47:14;;;;;;;3.05;1.60;;;27.50;46.90;;;;;;5005953;28;20046;-40
2022/07/24 11:49:54;;;;;;;3.35;1.73;;;27.60;47.60;;;;;;5009569;28;20078;-40
2022/07/24 11:52:37;;;;;;;4.15;1.48;;;27.70;47.90;;;;;;5012534;28;20038;-37
2022/07/24 11:55:08;;;;;;;3.40;1.77;;;27.80;47.20;;;;;;5012889;28;20114;-37
2022/07/24 11:57:37;;;;;;;2.00;1.40;;;27.90;47.50;;;;;;5012368;28;20050;-38
2022/07/24 12:00:11;;;;;;;2.15;1.38;;;27.90;47.10;;;;;;5028087;28;20120;-40
2022/07/24 12:02:41;;;;;;;5.20;1.70;;;27.90;46.30;;;;;;5008625;28;20048;-37
2022/07/24 12:05:08;;;;;;;3.47;1.85;;;27.90;46.20;;;;;;5005597;28;20069;-37
2022/07/24 12:07:35;;;;;;;2.53;1.52;;;28.00;46.60;;;;;;5012494;28;20132;-38
2022/07/24 12:10:01;;;;;;;2.20;1.52;;;28.10;45.90;;;;;;5012719;28;20521;-38
2022/07/24 12:12:39;;;;;;;2.58;1.80;;;27.90;45.70;;;;;;5012098;28;20037;-40
2022/07/24 12:15:11;;;;;;;3.25;1.95;;;27.80;45.90;;;;;;5012632;28;20042;-37
2022/07/24 12:17:58;;;;;;;3.42;1.65;;;27.70;46.10;;;;;;5012090;28;20589;-39
2022/07/24 12:20:29;;;;;;;4.22;1.60;;;27.90;45.80;;;;;;5005691;28;20042;-38
2022/07/24 12:22:56;;;;;;;1.80;1.40;;;28.00;46.80;;;;;;5010764;28;20034;-40
2022/07/24 12:25:23;;;;;;;2.17;1.60;;;28.00;45.20;;;;;;5012267;28;20081;-41
2022/07/24 12:27:49;;;;;;;3.30;1.65;;;28.10;44.90;;;;;;5004484;28;20497;-38
2022/07/24 12:30:28;;;;;;;2.67;1.40;;;28.10;45.20;;;;;;4997728;28;20069;-41
2022/07/24 12:32:58;;;;;;;3.50;1.67;;;28.20;44.50;;;;;;5006326;28;20046;-40
2022/07/24 12:35:26;;;;;;;2.53;1.50;;;28.20;44.80;;;;;;5003541;28;20050;-43
2022/07/24 12:37:52;;;;;;;8.52;1.65;;;28.30;44.40;;;;;;5005005;28;20092;-37
2022/07/24 12:40:33;;;;;;;2.42;1.70;;;28.30;44.70;;;;;;5005072;28;20101;-44
2022/07/24 12:43:12;;;;;;;2.17;1.42;;;28.40;43.80;;;;;;5013400;28;20117;-38
2022/07/24 12:45:38;;;;;;;2.17;1.48;;;28.40;43.30;;;;;;5000339;28;20043;-38
2022/07/24 12:48:09;;;;;;;3.42;2.42;;;28.50;43.60;;;;;;5006979;28;20134;-38
2022/07/24 12:50:36;;;;;;;2.67;1.90;;;28.50;43.40;;;;;;5003822;28;20446;-40